sensor_id;sensor_type;location;lat;lon;timestamp;P1;durP1;ratioP1;P2;durP2;ratioP2
10517;SDS011;5307;42.548;22.968;2022-09-09T00:00:19;19.38;;;12.70;;
10517;SDS011;5307;42.548;22.968;2022-09-09T00:02:49;13.95;;;12.35;;
10517;SDS011;5307;42.548;22.968;2022-09-09T00:05:24;20.15;;;13.23;;
10517;SDS011;5307;42.548;22.968;2022-09-09T00:07:58;17.10;;;13.15;;
10517;SDS011;5307;42.548;22.968;2022-09-09T00:10:29;17.35;;;13.07;;
10517;SDS011;5307;42.548;22.968;2022-09-09T00:19:15;15.77;;;12.50;;
10517;SDS011;5307;42.548;22.968;2022-09-09T00:21:53;16.85;;;12.48;;
10517;SDS011;5307;42.548;22.968;2022-09-09T00:24:32;17.35;;;13.02;;
10517;SDS011;5307;42.548;22.968;2022-09-09T00:27:04;16.15;;;13.18;;
10517;SDS011;5307;42.548;22.968;2022-09-09T00:29:35;14.95;;;12.65;;
10517;SDS011;5307;42.548;22.968;2022-09-09T00:32:11;19.08;;;13.70;;
10517;SDS011;5307;42.548;22.968;2022-09-09T00:34:46;13.77;;;12.25;;
10517;SDS011;5307;42.548;22.968;2022-09-09T00:37:15;15.95;;;13.23;;
10517;SDS011;5307;42.548;22.968;2022-09-09T00:39:44;17.63;;;13.07;;
10517;SDS011;5307;42.548;22.968;2022-09-09T00:42:14;15.07;;;13.05;;
10517;SDS011;5307;42.548;22.968;2022-09-09T00:47:36;18.88;;;13.45;;
10517;SDS011;5307;42.548;22.968;2022-09-09T00:50:12;17.05;;;13.35;;
10517;SDS011;5307;42.548;22.968;2022-09-09T00:53:21;15.93;;;13.63;;
10517;SDS011;5307;42.548;22.968;2022-09-09T00:55:59;17.73;;;13.32;;
10517;SDS011;5307;42.548;22.968;2022-09-09T00:58:34;18.42;;;13.80;;
10517;SDS011;5307;42.548;22.968;2022-09-09T01:01:02;22.65;;;13.27;;
10517;SDS011;5307;42.548;22.968;2022-09-09T01:03:36;23.77;;;13.63;;
10517;SDS011;5307;42.548;22.968;2022-09-09T01:06:16;17.50;;;13.52;;
10517;SDS011;5307;42.548;22.968;2022-09-09T01:08:58;18.23;;;13.65;;
10517;SDS011;5307;42.548;22.968;2022-09-09T01:11:33;16.63;;;13.60;;
10517;SDS011;5307;42.548;22.968;2022-09-09T01:14:11;16.95;;;13.15;;
10517;SDS011;5307;42.548;22.968;2022-09-09T01:16:52;23.38;;;13.70;;
10517;SDS011;5307;42.548;22.968;2022-09-09T01:19:32;18.17;;;12.55;;
10517;SDS011;5307;42.548;22.968;2022-09-09T01:22:12;18.80;;;13.20;;
10517;SDS011;5307;42.548;22.968;2022-09-09T01:24:50;12.98;;;11.52;;
10517;SDS011;5307;42.548;22.968;2022-09-09T01:27:35;17.38;;;12.70;;
10517;SDS011;5307;42.548;22.968;2022-09-09T01:30:04;16.83;;;11.45;;
10517;SDS011;5307;42.548;22.968;2022-09-09T01:32:40;15.10;;;12.55;;
10517;SDS011;5307;42.548;22.968;2022-09-09T01:35:09;15.38;;;12.30;;
10517;SDS011;5307;42.548;22.968;2022-09-09T01:37:39;16.00;;;11.90;;
10517;SDS011;5307;42.548;22.968;2022-09-09T01:40:06;12.95;;;11.38;;
10517;SDS011;5307;42.548;22.968;2022-09-09T01:42:35;16.23;;;12.88;;
10517;SDS011;5307;42.548;22.968;2022-09-09T01:45:02;17.83;;;11.85;;
10517;SDS011;5307;42.548;22.968;2022-09-09T01:47:30;17.50;;;11.27;;
10517;SDS011;5307;42.548;22.968;2022-09-09T01:49:57;14.32;;;11.50;;
10517;SDS011;5307;42.548;22.968;2022-09-09T01:52:25;18.17;;;11.65;;
10517;SDS011;5307;42.548;22.968;2022-09-09T01:54:52;14.10;;;11.95;;
10517;SDS011;5307;42.548;22.968;2022-09-09T01:57:20;16.13;;;12.20;;
10517;SDS011;5307;42.548;22.968;2022-09-09T01:59:56;14.38;;;12.32;;
10517;SDS011;5307;42.548;22.968;2022-09-09T02:02:32;16.15;;;12.15;;
10517;SDS011;5307;42.548;22.968;2022-09-09T02:05:05;15.55;;;12.15;;
10517;SDS011;5307;42.548;22.968;2022-09-09T02:07:41;15.48;;;11.95;;
10517;SDS011;5307;42.548;22.968;2022-09-09T02:10:15;14.90;;;11.75;;
10517;SDS011;5307;42.548;22.968;2022-09-09T02:12:47;24.27;;;12.75;;
10517;SDS011;5307;42.548;22.968;2022-09-09T02:15:22;14.38;;;12.73;;
10517;SDS011;5307;42.548;22.968;2022-09-09T02:17:53;13.43;;;11.30;;
10517;SDS011;5307;42.548;22.968;2022-09-09T02:20:24;17.67;;;12.50;;
10517;SDS011;5307;42.548;22.968;2022-09-09T02:22:52;13.95;;;12.07;;
10517;SDS011;5307;42.548;22.968;2022-09-09T02:25:23;18.55;;;11.32;;
10517;SDS011;5307;42.548;22.968;2022-09-09T02:27:52;19.88;;;11.65;;
10517;SDS011;5307;42.548;22.968;2022-09-09T02:30:19;13.50;;;11.82;;
10517;SDS011;5307;42.548;22.968;2022-09-09T02:32:48;14.45;;;11.73;;
10517;SDS011;5307;42.548;22.968;2022-09-09T02:35:22;16.42;;;12.45;;
10517;SDS011;5307;42.548;22.968;2022-09-09T02:37:51;16.55;;;11.55;;
10517;SDS011;5307;42.548;22.968;2022-09-09T02:40:21;14.90;;;11.95;;
10517;SDS011;5307;42.548;22.968;2022-09-09T02:42:48;12.85;;;11.55;;
10517;SDS011;5307;42.548;22.968;2022-09-09T02:45:16;19.50;;;12.73;;
10517;SDS011;5307;42.548;22.968;2022-09-09T02:47:50;14.10;;;11.48;;
10517;SDS011;5307;42.548;22.968;2022-09-09T02:50:23;19.85;;;12.73;;
10517;SDS011;5307;42.548;22.968;2022-09-09T02:52:57;13.77;;;12.02;;
10517;SDS011;5307;42.548;22.968;2022-09-09T02:55:36;14.13;;;11.25;;
10517;SDS011;5307;42.548;22.968;2022-09-09T02:58:06;15.60;;;11.27;;
10517;SDS011;5307;42.548;22.968;2022-09-09T03:00:36;19.05;;;12.75;;
10517;SDS011;5307;42.548;22.968;2022-09-09T03:03:07;15.95;;;12.18;;
10517;SDS011;5307;42.548;22.968;2022-09-09T03:05:34;13.93;;;12.30;;
10517;SDS011;5307;42.548;22.968;2022-09-09T03:08:01;14.45;;;12.93;;
10517;SDS011;5307;42.548;22.968;2022-09-09T03:10:29;13.65;;;11.50;;
10517;SDS011;5307;42.548;22.968;2022-09-09T03:12:55;14.32;;;12.40;;
10517;SDS011;5307;42.548;22.968;2022-09-09T03:15:22;17.52;;;12.27;;
10517;SDS011;5307;42.548;22.968;2022-09-09T03:17:54;15.25;;;12.30;;
10517;SDS011;5307;42.548;22.968;2022-09-09T03:20:23;15.50;;;13.10;;
10517;SDS011;5307;42.548;22.968;2022-09-09T03:22:51;15.50;;;12.82;;
10517;SDS011;5307;42.548;22.968;2022-09-09T03:25:18;24.00;;;13.55;;
10517;SDS011;5307;42.548;22.968;2022-09-09T03:27:45;15.57;;;12.63;;
10517;SDS011;5307;42.548;22.968;2022-09-09T03:30:12;17.60;;;12.48;;
10517;SDS011;5307;42.548;22.968;2022-09-09T03:32:39;15.95;;;12.88;;
10517;SDS011;5307;42.548;22.968;2022-09-09T03:35:06;17.52;;;13.57;;
10517;SDS011;5307;42.548;22.968;2022-09-09T03:37:34;15.63;;;12.82;;
10517;SDS011;5307;42.548;22.968;2022-09-09T03:40:01;17.63;;;13.27;;
10517;SDS011;5307;42.548;22.968;2022-09-09T03:42:29;20.27;;;14.68;;
10517;SDS011;5307;42.548;22.968;2022-09-09T03:44:55;19.70;;;15.30;;
10517;SDS011;5307;42.548;22.968;2022-09-09T03:47:23;21.23;;;14.63;;
10517;SDS011;5307;42.548;22.968;2022-09-09T03:49:49;20.08;;;14.88;;
10517;SDS011;5307;42.548;22.968;2022-09-09T03:52:16;22.75;;;14.77;;
10517;SDS011;5307;42.548;22.968;2022-09-09T03:54:45;23.50;;;16.05;;
10517;SDS011;5307;42.548;22.968;2022-09-09T03:57:11;19.98;;;15.07;;
10517;SDS011;5307;42.548;22.968;2022-09-09T03:59:41;21.50;;;16.27;;
10517;SDS011;5307;42.548;22.968;2022-09-09T04:02:08;25.58;;;15.73;;
10517;SDS011;5307;42.548;22.968;2022-09-09T04:04:36;19.42;;;15.27;;
10517;SDS011;5307;42.548;22.968;2022-09-09T04:07:03;22.52;;;15.00;;
10517;SDS011;5307;42.548;22.968;2022-09-09T04:09:31;21.92;;;15.27;;
10517;SDS011;5307;42.548;22.968;2022-09-09T04:11:59;22.63;;;14.25;;
10517;SDS011;5307;42.548;22.968;2022-09-09T04:14:26;20.48;;;14.13;;
10517;SDS011;5307;42.548;22.968;2022-09-09T04:16:53;18.52;;;13.63;;
10517;SDS011;5307;42.548;22.968;2022-09-09T04:19:21;24.67;;;14.57;;
10517;SDS011;5307;42.548;22.968;2022-09-09T04:21:47;23.95;;;14.10;;
10517;SDS011;5307;42.548;22.968;2022-09-09T04:24:16;15.35;;;12.35;;
10517;SDS011;5307;42.548;22.968;2022-09-09T04:26:43;19.40;;;13.00;;
10517;SDS011;5307;42.548;22.968;2022-09-09T04:29:13;18.00;;;12.57;;
10517;SDS011;5307;42.548;22.968;2022-09-09T04:31:53;16.13;;;12.80;;
10517;SDS011;5307;42.548;22.968;2022-09-09T04:34:19;23.25;;;13.07;;
10517;SDS011;5307;42.548;22.968;2022-09-09T04:36:46;21.02;;;13.02;;
10517;SDS011;5307;42.548;22.968;2022-09-09T04:39:14;18.80;;;13.52;;
10517;SDS011;5307;42.548;22.968;2022-09-09T04:41:41;13.93;;;12.43;;
10517;SDS011;5307;42.548;22.968;2022-09-09T04:44:08;18.98;;;11.60;;
10517;SDS011;5307;42.548;22.968;2022-09-09T04:46:44;18.35;;;11.50;;
10517;SDS011;5307;42.548;22.968;2022-09-09T04:49:11;15.57;;;10.23;;
10517;SDS011;5307;42.548;22.968;2022-09-09T04:51:38;16.20;;;10.80;;
10517;SDS011;5307;42.548;22.968;2022-09-09T04:54:04;13.25;;;10.40;;
10517;SDS011;5307;42.548;22.968;2022-09-09T04:56:32;11.27;;;9.90;;
10517;SDS011;5307;42.548;22.968;2022-09-09T04:59:01;15.73;;;9.48;;
10517;SDS011;5307;42.548;22.968;2022-09-09T05:01:28;13.52;;;10.45;;
10517;SDS011;5307;42.548;22.968;2022-09-09T05:03:56;13.13;;;10.20;;
10517;SDS011;5307;42.548;22.968;2022-09-09T05:06:23;11.38;;;9.57;;
10517;SDS011;5307;42.548;22.968;2022-09-09T05:08:50;15.32;;;9.70;;
10517;SDS011;5307;42.548;22.968;2022-09-09T05:11:17;18.73;;;10.95;;
10517;SDS011;5307;42.548;22.968;2022-09-09T05:13:46;14.52;;;11.20;;
10517;SDS011;5307;42.548;22.968;2022-09-09T05:16:13;19.10;;;11.65;;
10517;SDS011;5307;42.548;22.968;2022-09-09T05:18:40;18.63;;;11.88;;
10517;SDS011;5307;42.548;22.968;2022-09-09T05:21:10;20.33;;;11.13;;
10517;SDS011;5307;42.548;22.968;2022-09-09T05:23:37;18.25;;;11.65;;
10517;SDS011;5307;42.548;22.968;2022-09-09T05:26:05;18.33;;;11.50;;
10517;SDS011;5307;42.548;22.968;2022-09-09T05:28:33;19.27;;;12.80;;
10517;SDS011;5307;42.548;22.968;2022-09-09T05:31:02;17.48;;;12.45;;
10517;SDS011;5307;42.548;22.968;2022-09-09T05:33:30;17.33;;;10.65;;
10517;SDS011;5307;42.548;22.968;2022-09-09T05:35:58;15.80;;;11.32;;
10517;SDS011;5307;42.548;22.968;2022-09-09T05:38:27;16.95;;;10.65;;
10517;SDS011;5307;42.548;22.968;2022-09-09T05:40:54;16.23;;;9.55;;
10517;SDS011;5307;42.548;22.968;2022-09-09T05:43:22;13.50;;;10.82;;
10517;SDS011;5307;42.548;22.968;2022-09-09T05:45:58;20.23;;;10.43;;
10517;SDS011;5307;42.548;22.968;2022-09-09T05:48:27;13.13;;;9.75;;
10517;SDS011;5307;42.548;22.968;2022-09-09T05:50:55;10.75;;;9.23;;
10517;SDS011;5307;42.548;22.968;2022-09-09T05:53:22;14.43;;;9.40;;
10517;SDS011;5307;42.548;22.968;2022-09-09T05:55:57;13.18;;;9.63;;
10517;SDS011;5307;42.548;22.968;2022-09-09T05:58:25;13.18;;;9.10;;
10517;SDS011;5307;42.548;22.968;2022-09-09T06:00:52;9.57;;;8.63;;
10517;SDS011;5307;42.548;22.968;2022-09-09T06:03:20;21.23;;;8.57;;
10517;SDS011;5307;42.548;22.968;2022-09-09T06:05:56;15.27;;;8.98;;
10517;SDS011;5307;42.548;22.968;2022-09-09T06:08:23;14.38;;;9.43;;
10517;SDS011;5307;42.548;22.968;2022-09-09T06:10:51;15.23;;;9.95;;
10517;SDS011;5307;42.548;22.968;2022-09-09T06:13:18;11.48;;;8.88;;
10517;SDS011;5307;42.548;22.968;2022-09-09T06:15:49;15.52;;;8.95;;
10517;SDS011;5307;42.548;22.968;2022-09-09T06:18:17;10.63;;;9.05;;
10517;SDS011;5307;42.548;22.968;2022-09-09T06:20:53;10.55;;;9.52;;
10517;SDS011;5307;42.548;22.968;2022-09-09T06:23:20;13.93;;;9.35;;
10517;SDS011;5307;42.548;22.968;2022-09-09T06:25:47;29.13;;;9.52;;
10517;SDS011;5307;42.548;22.968;2022-09-09T06:28:15;17.42;;;9.82;;
10517;SDS011;5307;42.548;22.968;2022-09-09T06:30:42;17.83;;;9.68;;
10517;SDS011;5307;42.548;22.968;2022-09-09T06:33:09;14.15;;;9.40;;
10517;SDS011;5307;42.548;22.968;2022-09-09T06:35:36;11.35;;;9.05;;
10517;SDS011;5307;42.548;22.968;2022-09-09T06:38:03;14.00;;;9.35;;
10517;SDS011;5307;42.548;22.968;2022-09-09T06:40:30;13.18;;;9.77;;
10517;SDS011;5307;42.548;22.968;2022-09-09T06:42:59;11.52;;;8.85;;
10517;SDS011;5307;42.548;22.968;2022-09-09T06:45:28;13.82;;;9.50;;
10517;SDS011;5307;42.548;22.968;2022-09-09T06:47:55;17.00;;;9.75;;
10517;SDS011;5307;42.548;22.968;2022-09-09T06:50:41;13.85;;;9.65;;
10517;SDS011;5307;42.548;22.968;2022-09-09T06:53:08;14.30;;;9.35;;
10517;SDS011;5307;42.548;22.968;2022-09-09T06:55:34;18.35;;;9.45;;
10517;SDS011;5307;42.548;22.968;2022-09-09T06:58:07;11.15;;;9.15;;
10517;SDS011;5307;42.548;22.968;2022-09-09T07:00:35;19.67;;;9.50;;
10517;SDS011;5307;42.548;22.968;2022-09-09T07:03:03;21.20;;;9.35;;
10517;SDS011;5307;42.548;22.968;2022-09-09T07:05:30;24.73;;;8.48;;
10517;SDS011;5307;42.548;22.968;2022-09-09T07:07:57;19.23;;;8.77;;
10517;SDS011;5307;42.548;22.968;2022-09-09T07:10:24;17.63;;;8.75;;
10517;SDS011;5307;42.548;22.968;2022-09-09T07:12:51;18.48;;;9.35;;
10517;SDS011;5307;42.548;22.968;2022-09-09T07:15:18;27.48;;;9.85;;
10517;SDS011;5307;42.548;22.968;2022-09-09T07:17:48;14.82;;;9.20;;
10517;SDS011;5307;42.548;22.968;2022-09-09T07:20:15;26.45;;;9.55;;
10517;SDS011;5307;42.548;22.968;2022-09-09T07:22:41;22.98;;;9.68;;
10517;SDS011;5307;42.548;22.968;2022-09-09T07:25:08;27.75;;;9.73;;
10517;SDS011;5307;42.548;22.968;2022-09-09T07:27:35;23.38;;;10.15;;
10517;SDS011;5307;42.548;22.968;2022-09-09T07:30:02;12.07;;;8.77;;
10517;SDS011;5307;42.548;22.968;2022-09-09T07:32:29;17.63;;;8.52;;
10517;SDS011;5307;42.548;22.968;2022-09-09T07:34:58;38.42;;;9.50;;
10517;SDS011;5307;42.548;22.968;2022-09-09T07:37:25;26.55;;;9.63;;
10517;SDS011;5307;42.548;22.968;2022-09-09T07:39:51;29.40;;;9.90;;
10517;SDS011;5307;42.548;22.968;2022-09-09T07:42:18;20.98;;;9.57;;
10517;SDS011;5307;42.548;22.968;2022-09-09T07:44:45;21.67;;;9.63;;
10517;SDS011;5307;42.548;22.968;2022-09-09T07:47:12;23.77;;;9.63;;
10517;SDS011;5307;42.548;22.968;2022-09-09T07:49:39;17.48;;;9.43;;
10517;SDS011;5307;42.548;22.968;2022-09-09T07:52:07;23.55;;;9.77;;
10517;SDS011;5307;42.548;22.968;2022-09-09T07:54:34;19.60;;;9.63;;
10517;SDS011;5307;42.548;22.968;2022-09-09T07:57:01;16.23;;;9.27;;
10517;SDS011;5307;42.548;22.968;2022-09-09T07:59:29;17.17;;;9.45;;
10517;SDS011;5307;42.548;22.968;2022-09-09T08:01:56;18.58;;;8.88;;
10517;SDS011;5307;42.548;22.968;2022-09-09T08:04:24;18.38;;;9.13;;
10517;SDS011;5307;42.548;22.968;2022-09-09T08:06:53;10.88;;;9.02;;
10517;SDS011;5307;42.548;22.968;2022-09-09T08:09:23;14.80;;;9.48;;
10517;SDS011;5307;42.548;22.968;2022-09-09T08:11:53;16.90;;;9.15;;
10517;SDS011;5307;42.548;22.968;2022-09-09T08:14:21;15.40;;;9.68;;
10517;SDS011;5307;42.548;22.968;2022-09-09T08:16:49;20.05;;;9.77;;
10517;SDS011;5307;42.548;22.968;2022-09-09T08:19:18;19.02;;;10.05;;
10517;SDS011;5307;42.548;22.968;2022-09-09T08:21:45;14.57;;;9.77;;
10517;SDS011;5307;42.548;22.968;2022-09-09T08:24:14;12.90;;;9.57;;
10517;SDS011;5307;42.548;22.968;2022-09-09T08:26:43;20.10;;;10.00;;
10517;SDS011;5307;42.548;22.968;2022-09-09T08:29:12;15.18;;;10.10;;
10517;SDS011;5307;42.548;22.968;2022-09-09T08:31:39;14.65;;;10.23;;
10517;SDS011;5307;42.548;22.968;2022-09-09T08:34:08;23.05;;;11.02;;
10517;SDS011;5307;42.548;22.968;2022-09-09T08:36:36;15.00;;;9.25;;
10517;SDS011;5307;42.548;22.968;2022-09-09T08:39:06;20.40;;;9.73;;
10517;SDS011;5307;42.548;22.968;2022-09-09T08:44:45;19.55;;;10.05;;
10517;SDS011;5307;42.548;22.968;2022-09-09T08:47:25;18.25;;;9.65;;
10517;SDS011;5307;42.548;22.968;2022-09-09T08:52:51;15.43;;;10.00;;
10517;SDS011;5307;42.548;22.968;2022-09-09T08:55:24;20.17;;;9.60;;
10517;SDS011;5307;42.548;22.968;2022-09-09T08:57:58;15.60;;;9.55;;
10517;SDS011;5307;42.548;22.968;2022-09-09T09:00:34;17.63;;;9.60;;
10517;SDS011;5307;42.548;22.968;2022-09-09T09:03:11;14.73;;;10.20;;
10517;SDS011;5307;42.548;22.968;2022-09-09T09:05:47;14.65;;;10.43;;
10517;SDS011;5307;42.548;22.968;2022-09-09T09:08:33;15.65;;;9.63;;
10517;SDS011;5307;42.548;22.968;2022-09-09T09:11:06;14.35;;;9.43;;
10517;SDS011;5307;42.548;22.968;2022-09-09T09:13:35;17.50;;;10.55;;
10517;SDS011;5307;42.548;22.968;2022-09-09T09:16:11;13.05;;;9.77;;
10517;SDS011;5307;42.548;22.968;2022-09-09T09:18:44;16.00;;;9.30;;
10517;SDS011;5307;42.548;22.968;2022-09-09T09:21:11;13.73;;;9.13;;
10517;SDS011;5307;42.548;22.968;2022-09-09T09:23:45;14.20;;;9.50;;
10517;SDS011;5307;42.548;22.968;2022-09-09T09:26:20;11.93;;;9.57;;
10517;SDS011;5307;42.548;22.968;2022-09-09T09:28:50;20.63;;;9.98;;
10517;SDS011;5307;42.548;22.968;2022-09-09T09:31:21;12.90;;;9.70;;
10517;SDS011;5307;42.548;22.968;2022-09-09T09:33:52;12.18;;;10.77;;
10517;SDS011;5307;42.548;22.968;2022-09-09T09:36:20;13.55;;;10.27;;
10517;SDS011;5307;42.548;22.968;2022-09-09T09:38:52;17.40;;;10.18;;
10517;SDS011;5307;42.548;22.968;2022-09-09T09:41:31;16.90;;;10.10;;
10517;SDS011;5307;42.548;22.968;2022-09-09T09:44:02;13.70;;;9.70;;
10517;SDS011;5307;42.548;22.968;2022-09-09T09:46:32;18.63;;;10.15;;
10517;SDS011;5307;42.548;22.968;2022-09-09T09:48:59;12.52;;;9.48;;
10517;SDS011;5307;42.548;22.968;2022-09-09T09:55:11;21.23;;;11.25;;
10517;SDS011;5307;42.548;22.968;2022-09-09T10:04:28;16.70;;;10.50;;
10517;SDS011;5307;42.548;22.968;2022-09-09T10:06:55;15.98;;;10.05;;
10517;SDS011;5307;42.548;22.968;2022-09-09T10:09:28;21.67;;;10.80;;
10517;SDS011;5307;42.548;22.968;2022-09-09T10:11:59;11.55;;;9.80;;
10517;SDS011;5307;42.548;22.968;2022-09-09T10:14:33;14.73;;;10.02;;
10517;SDS011;5307;42.548;22.968;2022-09-09T10:17:12;14.35;;;9.15;;
10517;SDS011;5307;42.548;22.968;2022-09-09T10:19:53;18.73;;;10.30;;
10517;SDS011;5307;42.548;22.968;2022-09-09T10:22:32;13.73;;;9.52;;
10517;SDS011;5307;42.548;22.968;2022-09-09T10:25:20;17.55;;;9.52;;
10517;SDS011;5307;42.548;22.968;2022-09-09T10:28:00;18.10;;;10.40;;
10517;SDS011;5307;42.548;22.968;2022-09-09T10:30:53;12.82;;;9.85;;
10517;SDS011;5307;42.548;22.968;2022-09-09T10:33:31;12.40;;;9.10;;
10517;SDS011;5307;42.548;22.968;2022-09-09T10:36:21;14.60;;;10.32;;
10517;SDS011;5307;42.548;22.968;2022-09-09T10:38:52;16.10;;;9.88;;
10517;SDS011;5307;42.548;22.968;2022-09-09T10:41:30;15.48;;;10.30;;
10517;SDS011;5307;42.548;22.968;2022-09-09T10:44:10;16.33;;;9.98;;
10517;SDS011;5307;42.548;22.968;2022-09-09T10:46:58;13.85;;;9.52;;
10517;SDS011;5307;42.548;22.968;2022-09-09T10:49:45;12.75;;;9.45;;
10517;SDS011;5307;42.548;22.968;2022-09-09T10:52:31;16.02;;;13.13;;
10517;SDS011;5307;42.548;22.968;2022-09-09T10:55:07;16.65;;;9.82;;
10517;SDS011;5307;42.548;22.968;2022-09-09T10:57:40;16.15;;;9.65;;
10517;SDS011;5307;42.548;22.968;2022-09-09T11:00:14;14.02;;;10.40;;
10517;SDS011;5307;42.548;22.968;2022-09-09T11:02:44;21.10;;;10.07;;
10517;SDS011;5307;42.548;22.968;2022-09-09T11:05:17;13.20;;;10.57;;
10517;SDS011;5307;42.548;22.968;2022-09-09T11:07:49;17.23;;;11.13;;
10517;SDS011;5307;42.548;22.968;2022-09-09T11:10:23;17.80;;;11.07;;
10517;SDS011;5307;42.548;22.968;2022-09-09T11:12:57;15.07;;;11.20;;
10517;SDS011;5307;42.548;22.968;2022-09-09T11:15:29;18.13;;;12.52;;
10517;SDS011;5307;42.548;22.968;2022-09-09T11:18:03;16.08;;;12.85;;
10517;SDS011;5307;42.548;22.968;2022-09-09T11:20:32;16.67;;;12.40;;
10517;SDS011;5307;42.548;22.968;2022-09-09T11:23:02;12.63;;;10.00;;
10517;SDS011;5307;42.548;22.968;2022-09-09T11:25:36;13.07;;;11.18;;
10517;SDS011;5307;42.548;22.968;2022-09-09T11:28:09;16.02;;;10.10;;
10517;SDS011;5307;42.548;22.968;2022-09-09T11:30:53;14.52;;;9.45;;
10517;SDS011;5307;42.548;22.968;2022-09-09T11:33:49;16.02;;;9.73;;
10517;SDS011;5307;42.548;22.968;2022-09-09T11:36:30;14.23;;;10.18;;
10517;SDS011;5307;42.548;22.968;2022-09-09T11:39:27;15.05;;;10.38;;
10517;SDS011;5307;42.548;22.968;2022-09-09T11:42:24;14.32;;;9.52;;
10517;SDS011;5307;42.548;22.968;2022-09-09T11:44:51;12.93;;;10.60;;
10517;SDS011;5307;42.548;22.968;2022-09-09T11:47:20;14.07;;;10.18;;
10517;SDS011;5307;42.548;22.968;2022-09-09T11:49:54;16.20;;;9.75;;
10517;SDS011;5307;42.548;22.968;2022-09-09T11:52:23;11.63;;;10.43;;
10517;SDS011;5307;42.548;22.968;2022-09-09T11:54:55;13.35;;;10.18;;
10517;SDS011;5307;42.548;22.968;2022-09-09T11:57:24;13.82;;;10.60;;
10517;SDS011;5307;42.548;22.968;2022-09-09T11:59:57;13.13;;;10.05;;
10517;SDS011;5307;42.548;22.968;2022-09-09T12:02:25;14.75;;;9.82;;
10517;SDS011;5307;42.548;22.968;2022-09-09T12:04:55;15.75;;;9.02;;
10517;SDS011;5307;42.548;22.968;2022-09-09T12:07:29;11.60;;;9.68;;
10517;SDS011;5307;42.548;22.968;2022-09-09T12:10:02;10.05;;;9.05;;
10517;SDS011;5307;42.548;22.968;2022-09-09T12:12:32;13.13;;;9.02;;
10517;SDS011;5307;42.548;22.968;2022-09-09T12:15:18;15.68;;;9.18;;
10517;SDS011;5307;42.548;22.968;2022-09-09T12:17:48;10.23;;;8.50;;
10517;SDS011;5307;42.548;22.968;2022-09-09T12:20:17;17.90;;;9.82;;
10517;SDS011;5307;42.548;22.968;2022-09-09T12:25:48;9.85;;;8.00;;
10517;SDS011;5307;42.548;22.968;2022-09-09T12:28:25;14.90;;;8.63;;
10517;SDS011;5307;42.548;22.968;2022-09-09T12:31:04;16.70;;;9.00;;
10517;SDS011;5307;42.548;22.968;2022-09-09T12:33:39;10.20;;;9.10;;
10517;SDS011;5307;42.548;22.968;2022-09-09T12:36:09;12.65;;;8.05;;
10517;SDS011;5307;42.548;22.968;2022-09-09T12:38:41;14.45;;;9.05;;
10517;SDS011;5307;42.548;22.968;2022-09-09T12:41:19;15.07;;;8.20;;
10517;SDS011;5307;42.548;22.968;2022-09-09T12:43:47;9.82;;;7.90;;
10517;SDS011;5307;42.548;22.968;2022-09-09T12:46:17;10.95;;;8.57;;
10517;SDS011;5307;42.548;22.968;2022-09-09T12:48:56;9.98;;;8.55;;
10517;SDS011;5307;42.548;22.968;2022-09-09T12:51:24;11.65;;;8.77;;
10517;SDS011;5307;42.548;22.968;2022-09-09T12:53:53;12.48;;;8.68;;
10517;SDS011;5307;42.548;22.968;2022-09-09T12:56:23;10.80;;;8.45;;
10517;SDS011;5307;42.548;22.968;2022-09-09T12:58:57;14.13;;;8.77;;
10517;SDS011;5307;42.548;22.968;2022-09-09T13:01:26;10.45;;;8.27;;
10517;SDS011;5307;42.548;22.968;2022-09-09T13:03:55;13.07;;;9.25;;
10517;SDS011;5307;42.548;22.968;2022-09-09T13:06:22;11.75;;;7.85;;
10517;SDS011;5307;42.548;22.968;2022-09-09T13:08:50;10.73;;;9.05;;
10517;SDS011;5307;42.548;22.968;2022-09-09T13:11:19;10.10;;;8.45;;
10517;SDS011;5307;42.548;22.968;2022-09-09T13:13:52;12.05;;;8.52;;
10517;SDS011;5307;42.548;22.968;2022-09-09T13:16:21;13.20;;;8.80;;
10517;SDS011;5307;42.548;22.968;2022-09-09T13:18:51;12.88;;;9.50;;
10517;SDS011;5307;42.548;22.968;2022-09-09T13:21:30;13.48;;;8.73;;
10517;SDS011;5307;42.548;22.968;2022-09-09T13:23:59;15.88;;;9.20;;
10517;SDS011;5307;42.548;22.968;2022-09-09T13:26:30;13.43;;;9.90;;
10517;SDS011;5307;42.548;22.968;2022-09-09T13:29:07;18.13;;;9.70;;
10517;SDS011;5307;42.548;22.968;2022-09-09T13:31:43;14.48;;;8.93;;
10517;SDS011;5307;42.548;22.968;2022-09-09T13:34:11;17.73;;;8.90;;
10517;SDS011;5307;42.548;22.968;2022-09-09T13:36:39;13.32;;;8.68;;
10517;SDS011;5307;42.548;22.968;2022-09-09T13:39:13;13.60;;;8.65;;
10517;SDS011;5307;42.548;22.968;2022-09-09T13:41:45;12.35;;;7.68;;
10517;SDS011;5307;42.548;22.968;2022-09-09T13:44:14;16.80;;;8.60;;
10517;SDS011;5307;42.548;22.968;2022-09-09T13:46:46;12.38;;;8.73;;
10517;SDS011;5307;42.548;22.968;2022-09-09T13:49:19;16.67;;;7.97;;
10517;SDS011;5307;42.548;22.968;2022-09-09T13:51:49;12.57;;;8.73;;
10517;SDS011;5307;42.548;22.968;2022-09-09T13:54:19;12.05;;;8.40;;
10517;SDS011;5307;42.548;22.968;2022-09-09T13:56:49;10.27;;;8.63;;
10517;SDS011;5307;42.548;22.968;2022-09-09T13:59:16;16.08;;;8.80;;
10517;SDS011;5307;42.548;22.968;2022-09-09T14:01:45;15.18;;;7.82;;
10517;SDS011;5307;42.548;22.968;2022-09-09T14:04:12;15.07;;;8.23;;
10517;SDS011;5307;42.548;22.968;2022-09-09T14:06:39;21.80;;;9.55;;
10517;SDS011;5307;42.548;22.968;2022-09-09T14:09:06;13.30;;;8.27;;
10517;SDS011;5307;42.548;22.968;2022-09-09T14:11:36;17.33;;;7.90;;
10517;SDS011;5307;42.548;22.968;2022-09-09T14:14:04;18.02;;;8.25;;
10517;SDS011;5307;42.548;22.968;2022-09-09T14:16:31;10.52;;;9.15;;
10517;SDS011;5307;42.548;22.968;2022-09-09T14:18:58;11.77;;;8.35;;
10517;SDS011;5307;42.548;22.968;2022-09-09T14:21:27;14.48;;;8.85;;
10517;SDS011;5307;42.548;22.968;2022-09-09T14:23:54;12.02;;;8.95;;
10517;SDS011;5307;42.548;22.968;2022-09-09T14:26:23;12.88;;;9.52;;
10517;SDS011;5307;42.548;22.968;2022-09-09T14:28:51;13.82;;;9.80;;
10517;SDS011;5307;42.548;22.968;2022-09-09T14:31:20;18.30;;;10.25;;
10517;SDS011;5307;42.548;22.968;2022-09-09T14:33:47;14.10;;;10.52;;
10517;SDS011;5307;42.548;22.968;2022-09-09T14:36:14;20.08;;;9.43;;
10517;SDS011;5307;42.548;22.968;2022-09-09T14:38:41;14.32;;;10.57;;
10517;SDS011;5307;42.548;22.968;2022-09-09T14:41:08;15.68;;;10.57;;
10517;SDS011;5307;42.548;22.968;2022-09-09T14:43:37;14.23;;;10.40;;
10517;SDS011;5307;42.548;22.968;2022-09-09T14:46:04;14.45;;;10.27;;
10517;SDS011;5307;42.548;22.968;2022-09-09T14:48:33;12.07;;;9.98;;
10517;SDS011;5307;42.548;22.968;2022-09-09T14:51:04;13.48;;;9.95;;
10517;SDS011;5307;42.548;22.968;2022-09-09T14:53:32;13.77;;;8.38;;
10517;SDS011;5307;42.548;22.968;2022-09-09T14:56:03;13.13;;;8.07;;
10517;SDS011;5307;42.548;22.968;2022-09-09T14:58:31;18.35;;;8.43;;
10517;SDS011;5307;42.548;22.968;2022-09-09T15:01:01;17.90;;;8.88;;
10517;SDS011;5307;42.548;22.968;2022-09-09T15:03:30;13.60;;;9.30;;
10517;SDS011;5307;42.548;22.968;2022-09-09T15:05:58;17.98;;;8.60;;
10517;SDS011;5307;42.548;22.968;2022-09-09T15:08:25;18.02;;;9.57;;
10517;SDS011;5307;42.548;22.968;2022-09-09T15:10:58;17.00;;;9.32;;
10517;SDS011;5307;42.548;22.968;2022-09-09T15:13:26;13.80;;;9.75;;
10517;SDS011;5307;42.548;22.968;2022-09-09T15:15:53;15.77;;;9.63;;
10517;SDS011;5307;42.548;22.968;2022-09-09T15:18:20;23.15;;;10.32;;